createdAt,value
2019-04-06T03:02:49.450Z,97.00
2019-04-06T03:05:18.608Z,97.10
2019-04-06T03:07:47.536Z,97.00
2019-04-06T03:10:16.089Z,97.00
2019-04-06T03:12:44.667Z,97.10
2019-04-06T03:15:13.393Z,97.10
2019-04-06T03:17:42.434Z,97.20
2019-04-06T03:20:11.363Z,97.10
2019-04-06T03:22:40.013Z,97.10
2019-04-06T03:25:08.587Z,97.10
2019-04-06T03:27:37.159Z,97.30
2019-04-06T03:30:06.898Z,97.10
2019-04-06T03:32:35.777Z,97.10
2019-04-06T03:35:04.602Z,97.10
2019-04-06T03:37:33.519Z,97.10
2019-04-06T03:40:02.374Z,97.10
2019-04-06T03:42:30.967Z,97.20
2019-04-06T03:44:59.529Z,97.30
2019-04-06T03:47:28.507Z,97.40
2019-04-06T03:49:57.156Z,97.70
2019-04-06T03:52:26.002Z,97.50
2019-04-06T03:54:54.833Z,97.40
2019-04-06T03:57:23.438Z,97.30
2019-04-06T03:59:52.279Z,97.20
2019-04-06T04:02:20.871Z,97.20
2019-04-06T04:04:49.691Z,97.00
2019-04-06T04:07:18.369Z,96.90
2019-04-06T04:09:46.940Z,97.00
2019-04-06T04:12:15.506Z,97.00
2019-04-06T04:14:44.117Z,97.00
2019-04-06T04:17:12.946Z,97.00
2019-04-06T04:19:41.874Z,97.00
2019-04-06T04:22:10.463Z,97.00
2019-04-06T04:24:39.285Z,97.00
2019-04-06T04:27:08.386Z,96.90
2019-04-06T04:29:36.919Z,97.00
2019-04-06T04:32:05.531Z,97.00
2019-04-06T04:34:34.148Z,97.00
2019-04-06T04:37:02.743Z,96.90
2019-04-06T04:39:31.697Z,97.00
2019-04-06T04:42:00.349Z,97.10
2019-04-06T04:44:29.546Z,97.10
2019-04-06T04:46:58.257Z,97.10
2019-04-06T04:49:26.855Z,97.00
2019-04-06T04:51:55.439Z,96.90
2019-04-06T04:54:24.275Z,97.00
2019-04-06T04:56:52.955Z,96.70
2019-04-06T04:59:21.583Z,96.70
2019-04-06T05:01:50.158Z,96.60
2019-04-06T05:04:19.127Z,97.20
2019-04-06T05:06:48.011Z,96.90
2019-04-06T05:09:17.105Z,96.80
2019-04-06T05:11:45.655Z,96.80
2019-04-06T05:14:51.089Z,96.80
2019-04-06T05:17:19.930Z,96.70
2019-04-06T05:19:48.747Z,96.70
2019-04-06T05:22:17.374Z,96.80
2019-04-06T05:24:45.940Z,96.60
2019-04-06T05:27:14.904Z,96.60
2019-04-06T05:29:43.767Z,96.60
2019-04-06T05:32:12.326Z,96.70
2019-04-06T05:34:41.184Z,96.80
2019-04-06T05:37:09.804Z,96.70
2019-04-06T05:39:38.386Z,96.80
2019-04-06T05:42:07.006Z,96.80
2019-04-06T05:44:35.585Z,96.80
2019-04-06T05:47:04.171Z,96.80
2019-04-06T05:49:32.734Z,96.80
2019-04-06T05:52:01.333Z,96.80
2019-04-06T05:54:30.082Z,96.70
2019-04-06T05:56:58.649Z,96.70
2019-04-06T05:59:27.428Z,96.70
2019-04-06T06:01:56.296Z,96.70
2019-04-06T06:04:25.312Z,96.50
2019-04-06T06:06:53.868Z,96.40
2019-04-06T06:09:22.619Z,96.40
2019-04-06T06:11:51.383Z,96.30
2019-04-06T06:14:20.010Z,96.10
2019-04-06T06:16:48.598Z,96.10
2019-04-06T06:19:17.462Z,96.10
2019-04-06T06:21:46.027Z,95.90
2019-04-06T06:24:14.966Z,96.00
2019-04-06T06:26:43.638Z,95.80
2019-04-06T06:29:12.308Z,95.80
2019-04-06T06:31:41.178Z,95.60
2019-04-06T06:34:09.743Z,95.50
2019-04-06T06:36:38.327Z,95.50
2019-04-06T06:39:08.160Z,95.50
2019-04-06T06:41:37.022Z,95.20
2019-04-06T06:44:05.966Z,95.20
2019-04-06T06:46:34.598Z,94.90
2019-04-06T06:49:03.231Z,94.80
2019-04-06T06:51:31.816Z,94.70
2019-04-06T06:54:00.398Z,94.70
2019-04-06T06:56:28.963Z,94.60
2019-04-06T06:58:57.530Z,94.60
2019-04-06T07:01:26.498Z,94.30
2019-04-06T07:03:55.551Z,94.30
2019-04-06T07:06:24.219Z,94.20
2019-04-06T07:08:52.787Z,94.30
2019-04-06T07:11:21.513Z,94.00
2019-04-06T07:13:50.211Z,93.90
2019-04-06T07:16:18.966Z,93.90
2019-04-06T07:18:47.567Z,94.00
2019-04-06T07:21:16.904Z,93.80
2019-04-06T07:23:45.810Z,93.60
2019-04-06T07:26:14.375Z,93.60
2019-04-06T07:28:42.951Z,93.50
2019-04-06T07:31:11.531Z,93.30
2019-04-06T07:33:40.118Z,93.00
2019-04-06T07:36:08.694Z,92.80
2019-04-06T07:38:38.292Z,92.30
2019-04-06T07:41:07.513Z,92.00
2019-04-06T07:43:36.305Z,91.50
2019-04-06T07:46:05.053Z,91.40
2019-04-06T07:48:33.706Z,91.30
2019-04-06T07:51:02.298Z,91.30
2019-04-06T07:53:30.862Z,91.30
2019-04-06T07:55:59.463Z,90.60
2019-04-06T07:58:28.040Z,90.40
2019-04-06T08:00:56.679Z,90.30
2019-04-06T08:03:25.291Z,90.20
2019-04-06T08:05:53.897Z,89.70
2019-04-06T08:08:22.498Z,90.00
2019-04-06T08:10:51.111Z,89.20
2019-04-06T08:13:20.062Z,90.00
2019-04-06T08:15:48.701Z,89.80
2019-04-06T08:18:17.302Z,90.10
2019-04-06T08:20:46.051Z,89.10
2019-04-06T08:23:14.650Z,87.30
2019-04-06T08:25:43.218Z,85.30
2019-04-06T08:28:11.807Z,81.30
2019-04-06T08:30:46.368Z,79.20
2019-04-06T08:33:10.985Z,74.20
2019-04-06T08:35:39.545Z,68.30
2019-04-06T08:38:08.122Z,65.70
2019-04-06T08:40:36.985Z,62.80
2019-04-06T08:43:05.562Z,59.30
2019-04-06T08:45:34.182Z,57.10
2019-04-06T08:48:02.768Z,54.40
2019-04-06T08:50:32.320Z,51.90
2019-04-06T08:53:00.866Z,51.10
2019-04-06T08:55:29.426Z,49.70
2019-04-06T08:57:58.018Z,48.00
2019-04-06T09:00:26.592Z,47.20
2019-04-06T09:02:55.299Z,45.90
2019-04-06T09:05:23.925Z,44.90
2019-04-06T09:07:53.095Z,43.70
2019-04-06T09:10:21.695Z,42.00
2019-04-06T09:12:50.261Z,41.60
2019-04-06T09:15:18.832Z,39.50
2019-04-06T09:17:47.438Z,38.70
2019-04-06T09:20:17.371Z,38.90
2019-04-06T09:22:46.080Z,41.20
2019-04-06T09:25:14.668Z,42.80
2019-04-06T09:27:43.220Z,43.40
2019-04-06T09:30:11.884Z,41.90
2019-04-06T09:32:40.445Z,43.10
2019-04-06T09:35:09.172Z,44.60
2019-04-06T09:37:37.846Z,47.10
2019-04-06T09:40:06.661Z,50.00
2019-04-06T09:42:35.282Z,52.10
2019-04-06T09:45:24.393Z,53.40
2019-04-06T09:47:58.049Z,54.60
2019-04-06T09:50:52.046Z,54.10
2019-04-06T09:53:42.782Z,53.90
2019-04-06T09:56:29.504Z,53.30
2019-04-06T09:59:34.602Z,52.10
2019-04-06T10:02:19.271Z,49.70
2019-04-06T10:04:55.817Z,48.40
2019-04-06T10:07:35.073Z,49.40
2019-04-06T10:10:21.713Z,48.60
2019-04-06T10:13:09.374Z,45.80
2019-04-06T10:15:57.047Z,43.20
2019-04-06T10:18:51.170Z,41.90
2019-04-06T10:21:37.572Z,40.40
2019-04-06T10:24:34.460Z,40.00
2019-04-06T10:27:27.617Z,40.80
2019-04-06T10:30:09.341Z,44.10
2019-04-06T10:32:47.403Z,46.40
2019-04-06T10:35:31.732Z,48.70
2019-04-06T10:38:24.745Z,50.50
2019-04-06T10:41:05.970Z,53.50
2019-04-06T10:43:53.646Z,54.50
2019-04-06T10:46:40.774Z,54.30
2019-04-06T10:49:22.147Z,52.30
2019-04-06T10:52:16.526Z,48.30
2019-04-06T10:55:07.170Z,46.90
2019-04-06T10:57:57.710Z,46.70
2019-04-06T11:00:42.144Z,46.80
2019-04-06T11:03:26.090Z,49.20
2019-04-06T11:06:06.453Z,48.30
2019-04-06T11:09:12.676Z,44.60
2019-04-06T11:12:00.605Z,42.00
2019-04-06T11:14:51.438Z,40.30
2019-04-06T11:17:42.013Z,39.40
2019-04-06T11:20:35.482Z,38.30
2019-04-06T11:23:29.319Z,38.40
2019-04-06T11:26:11.309Z,36.90
2019-04-06T11:29:05.507Z,37.10
2019-04-06T11:31:57.385Z,37.10
2019-04-06T11:34:45.510Z,38.80
2019-04-06T11:37:39.927Z,38.80
2019-04-06T11:40:19.290Z,39.00
2019-04-06T11:42:58.650Z,39.20
2019-04-06T11:45:33.544Z,38.40
2019-04-06T11:48:33.737Z,37.70
2019-04-06T11:51:30.635Z,36.40
2019-04-06T11:54:08.598Z,35.60
2019-04-06T11:56:56.330Z,34.40
2019-04-06T11:59:59.647Z,33.80
2019-04-06T12:02:46.286Z,32.70
2019-04-06T12:05:31.548Z,33.30
2019-04-06T12:08:18.065Z,33.00
2019-04-06T12:10:55.328Z,33.30
2019-04-06T12:13:40.155Z,33.20
2019-04-06T12:16:26.728Z,33.30
2019-04-06T12:19:13.603Z,33.20
2019-04-06T12:22:04.694Z,33.90
2019-04-06T12:25:01.713Z,34.80
2019-04-06T12:27:50.850Z,35.00
2019-04-06T12:30:46.855Z,35.30
2019-04-06T12:33:29.131Z,34.20
2019-04-06T12:36:07.063Z,35.40
2019-04-06T12:38:54.056Z,36.20
2019-04-06T12:41:41.726Z,36.60
2019-04-06T12:44:19.066Z,36.80
2019-04-06T12:47:05.446Z,36.00
2019-04-06T12:49:46.031Z,34.30
2019-04-06T12:52:40.238Z,34.30
2019-04-06T12:55:39.847Z,34.00
2019-04-06T12:58:26.198Z,34.90
2019-04-06T13:01:18.371Z,34.30
2019-04-06T13:04:04.963Z,34.50
2019-04-06T13:06:58.984Z,35.60
2019-04-06T13:09:47.559Z,37.70
2019-04-06T13:12:34.534Z,38.90
2019-04-06T13:15:21.377Z,39.40
2019-04-06T13:18:09.123Z,39.80
2019-04-06T13:20:56.786Z,39.20
2019-04-06T13:23:41.030Z,37.60
2019-04-06T13:26:35.146Z,38.00
2019-04-06T13:29:29.224Z,38.50
2019-04-06T13:32:32.194Z,36.80
2019-04-06T13:35:10.235Z,36.30
2019-04-06T13:37:58.863Z,35.90
2019-04-06T13:40:52.710Z,36.10
2019-04-06T13:43:27.555Z,36.60
2019-04-06T13:46:15.414Z,38.10
2019-04-06T13:49:03.369Z,37.40
2019-04-06T13:51:53.211Z,38.50
2019-04-06T13:54:35.449Z,39.30
2019-04-06T13:57:14.122Z,39.20
2019-04-06T14:00:00.878Z,38.60
2019-04-06T14:02:44.881Z,38.30
2019-04-06T14:05:38.462Z,39.00
2019-04-06T14:08:28.957Z,38.90
2019-04-06T14:11:16.651Z,39.70
2019-04-06T14:14:13.217Z,39.60
2019-04-06T14:17:19.193Z,40.10
2019-04-06T14:20:07.151Z,40.20
2019-04-06T14:23:07.058Z,41.70
2019-04-06T14:26:01.065Z,43.80
2019-04-06T14:28:36.879Z,44.90
2019-04-06T14:31:28.976Z,45.10
2019-04-06T14:34:14.012Z,45.80
2019-04-06T14:36:57.883Z,46.40
2019-04-06T14:39:40.121Z,46.80
2019-04-06T14:42:25.893Z,47.20
2019-04-06T14:45:00.641Z,47.70
2019-04-06T14:47:58.275Z,48.10
2019-04-06T14:50:48.986Z,48.90
2019-04-06T14:53:40.329Z,49.20
2019-04-06T14:56:15.215Z,49.40
2019-04-06T14:59:01.639Z,49.80
2019-04-06T15:01:42.392Z,50.40
2019-04-06T15:04:18.903Z,50.30
2019-04-06T15:07:10.798Z,50.50
2019-04-06T15:09:39.482Z,50.50
2019-04-06T15:12:17.418Z,51.00
2019-04-06T15:15:04.040Z,51.00
2019-04-06T15:17:46.926Z,51.40
2019-04-06T15:20:37.783Z,51.60
2019-04-06T15:23:21.989Z,51.80
2019-04-06T15:26:06.727Z,52.10
2019-04-06T15:28:53.098Z,52.20
2019-04-06T15:31:56.462Z,52.60
2019-04-06T15:34:50.893Z,52.80
2019-04-06T15:37:36.610Z,53.00
2019-04-06T15:40:19.476Z,53.30
2019-04-06T15:43:00.495Z,52.70
2019-04-06T15:45:36.920Z,52.80
2019-04-06T15:48:15.398Z,53.40
2019-04-06T15:51:15.874Z,53.30
2019-04-06T15:53:54.821Z,53.70
2019-04-06T15:56:29.990Z,54.10
2019-04-06T15:59:07.492Z,54.50
2019-04-06T16:01:43.695Z,55.00
2019-04-06T16:04:30.386Z,54.90
2019-04-06T16:07:10.598Z,54.60
2019-04-06T16:09:51.349Z,55.30
2019-04-06T16:12:39.059Z,55.90
2019-04-06T16:15:28.278Z,56.10
2019-04-06T16:18:21.964Z,56.20
2019-04-06T16:21:12.606Z,56.10
2019-04-06T16:23:47.362Z,55.70
2019-04-06T16:26:41.187Z,56.30
2019-04-06T16:29:25.086Z,56.20
2019-04-06T16:32:16.080Z,56.70
2019-04-06T16:34:56.860Z,57.10
2019-04-06T16:37:43.578Z,57.80
2019-04-06T16:40:25.569Z,58.00
2019-04-06T16:43:06.214Z,58.10
2019-04-06T16:45:56.986Z,58.30
2019-04-06T16:48:51.372Z,58.50
2019-04-06T16:51:57.649Z,59.00
2019-04-06T16:54:40.119Z,59.20
2019-04-06T16:57:26.550Z,59.40
2019-04-06T17:00:01.716Z,59.50
2019-04-06T17:02:54.602Z,60.00
2019-04-06T17:05:48.493Z,60.00
2019-04-06T17:08:27.109Z,59.90
2019-04-06T17:11:20.792Z,60.50
2019-04-06T17:14:07.794Z,60.90
2019-04-06T17:16:58.758Z,61.10
2019-04-06T17:19:52.674Z,61.40
2019-04-06T17:22:39.045Z,61.70
2019-04-06T17:25:20.132Z,62.70
2019-04-06T17:27:58.842Z,62.30
2019-04-06T17:30:55.839Z,62.80
2019-04-06T17:33:47.167Z,63.00
2019-04-06T17:36:33.991Z,63.40
2019-04-06T17:39:40.179Z,63.80
2019-04-06T17:42:27.911Z,63.90
2019-04-06T17:45:10.375Z,64.40
2019-04-06T17:48:10.211Z,64.70
2019-04-06T17:51:03.776Z,65.20
2019-04-06T17:53:39.800Z,65.50
2019-04-06T17:56:26.552Z,66.10
2019-04-06T17:59:13.385Z,66.60
2019-04-06T18:01:54.580Z,66.30
2019-04-06T18:04:42.378Z,66.80
2019-04-06T18:07:24.690Z,66.70
2019-04-06T18:10:11.862Z,66.90
2019-04-06T18:13:08.869Z,67.40
2019-04-06T18:15:38.036Z,67.80
2019-04-06T18:18:06.736Z,68.20
2019-04-06T18:20:35.377Z,68.60
2019-04-06T18:23:03.958Z,68.60
2019-04-06T18:25:32.513Z,68.60
2019-04-06T18:28:01.585Z,69.00
2019-04-06T18:30:30.530Z,68.90
2019-04-06T18:33:06.015Z,69.10
2019-04-06T18:35:34.596Z,69.00
2019-04-06T18:38:12.862Z,68.90
2019-04-06T18:40:41.614Z,68.90
2019-04-06T18:43:10.688Z,68.90
2019-04-06T18:45:39.838Z,68.60
2019-04-06T18:48:08.978Z,68.50
2019-04-06T18:50:38.959Z,68.80
2019-04-06T18:53:08.056Z,68.40
2019-04-06T18:55:36.944Z,68.70
2019-04-06T18:58:11.248Z,68.50
2019-04-06T19:00:35.967Z,68.00
2019-04-06T19:03:12.530Z,68.20
2019-04-06T19:05:34.879Z,68.60
2019-04-06T19:08:03.445Z,68.60
2019-04-06T19:10:32.503Z,68.30
2019-04-06T19:13:01.178Z,68.30
2019-04-06T19:15:29.774Z,68.50
2019-04-06T19:17:58.842Z,68.50
2019-04-06T19:20:27.489Z,68.70
2019-04-06T19:22:56.178Z,69.10
2019-04-06T19:25:25.072Z,69.40
2019-04-06T19:27:53.718Z,69.90
2019-04-06T19:30:22.306Z,70.10
2019-04-06T19:32:50.986Z,70.50
2019-04-06T19:35:19.890Z,71.10
2019-04-06T19:37:48.613Z,72.40
2019-04-06T19:40:36.526Z,71.90
2019-04-06T19:43:05.485Z,72.40
2019-04-06T19:45:34.043Z,72.60
2019-04-06T19:48:02.988Z,72.80
2019-04-06T19:50:31.659Z,73.40
2019-04-06T19:53:00.266Z,74.40
2019-04-06T19:55:29.153Z,75.00
2019-04-06T19:57:58.107Z,75.40
2019-04-06T20:00:27.250Z,75.50
2019-04-06T20:02:56.255Z,75.80
2019-04-06T20:05:25.151Z,76.50
2019-04-06T20:07:54.047Z,76.80
2019-04-06T20:10:23.072Z,76.90
2019-04-06T20:12:52.020Z,77.00
2019-04-06T20:15:20.603Z,77.30
2019-04-06T20:17:49.197Z,77.70
2019-04-06T20:20:17.763Z,78.30
2019-04-06T20:22:46.910Z,78.70
2019-04-06T20:25:15.948Z,78.80
2019-04-06T20:27:44.794Z,79.20
2019-04-06T20:30:13.539Z,79.70
2019-04-06T20:33:01.635Z,79.90
2019-04-06T20:35:30.488Z,80.50
2019-04-06T20:37:59.254Z,81.90
2019-04-06T20:40:28.641Z,81.50
2019-04-06T20:42:57.258Z,81.80
2019-04-06T20:45:25.901Z,82.20
2019-04-06T20:47:54.912Z,83.00
2019-04-06T20:50:23.534Z,83.50
2019-04-06T20:52:52.537Z,83.80
2019-04-06T20:55:21.235Z,83.90
2019-04-06T20:57:49.822Z,83.90
2019-04-06T21:00:18.803Z,84.00
2019-04-06T21:02:47.441Z,84.00
2019-04-06T21:05:16.614Z,84.10
2019-04-06T21:07:45.695Z,83.90
2019-04-06T21:10:14.302Z,83.70
2019-04-06T21:12:43.314Z,83.70
2019-04-06T21:15:18.985Z,83.50
2019-04-06T21:17:42.707Z,83.30
2019-04-06T21:20:11.773Z,82.90
2019-04-06T21:22:40.853Z,82.50
2019-04-06T21:25:10.041Z,82.30
2019-04-06T21:27:38.602Z,82.10
2019-04-06T21:30:07.186Z,82.10
2019-04-06T21:32:36.071Z,82.10
2019-04-06T21:35:05.557Z,82.50
2019-04-06T21:37:34.568Z,83.00
2019-04-06T21:40:03.183Z,83.20
2019-04-06T21:42:33.034Z,83.10
2019-04-06T21:45:02.030Z,83.40
2019-04-06T21:47:30.805Z,83.30
2019-04-06T21:49:59.446Z,83.40
2019-04-06T21:52:28.612Z,83.30
2019-04-06T21:54:57.223Z,83.30
2019-04-06T21:57:26.321Z,83.40
2019-04-06T21:59:55.193Z,83.40
